createdAt,value
2022-09-23T00:00:48.988Z,1.50
2022-09-23T00:03:17.697Z,1.48
2022-09-23T00:05:45.068Z,1.10
2022-09-23T00:08:13.119Z,1.40
2022-09-23T00:10:41.222Z,1.43
2022-09-23T00:13:08.840Z,1.40
2022-09-23T00:15:39.648Z,1.75
2022-09-23T00:18:08.025Z,1.63
2022-09-23T00:20:37.120Z,1.50
2022-09-23T00:23:04.607Z,1.53
2022-09-23T00:25:32.081Z,1.70
2022-09-23T00:27:59.818Z,1.40
2022-09-23T00:30:27.253Z,1.33
2022-09-23T00:32:56.643Z,1.80
2022-09-23T00:35:24.162Z,1.73
2022-09-23T00:37:53.059Z,1.40
2022-09-23T00:40:20.599Z,1.70
2022-09-23T00:42:49.277Z,1.52
2022-09-23T00:45:17.796Z,1.30
2022-09-23T00:47:49.061Z,1.70
2022-09-23T00:50:23.565Z,1.70
2022-09-23T00:52:54.754Z,1.60
2022-09-23T00:55:26.056Z,1.38
2022-09-23T00:57:56.316Z,1.23
2022-09-23T01:00:24.790Z,1.70
2022-09-23T01:02:52.335Z,1.15
2022-09-23T01:05:20.554Z,1.33
2022-09-23T01:07:48.238Z,1.50
2022-09-23T01:10:18.594Z,1.30
2022-09-23T01:13:08.054Z,1.60
2022-09-23T01:15:45.511Z,1.60
2022-09-23T01:18:24.260Z,1.38
2022-09-23T01:21:16.539Z,1.35
2022-09-23T01:24:21.074Z,1.60
2022-09-23T01:26:59.620Z,1.20
2022-09-23T01:29:50.718Z,1.63
2022-09-23T01:32:31.083Z,1.20
2022-09-23T01:35:06.946Z,1.60
2022-09-23T01:37:43.688Z,1.35
2022-09-23T01:40:18.445Z,1.90
2022-09-23T01:42:54.349Z,1.70
2022-09-23T01:45:29.781Z,1.40
2022-09-23T01:48:04.284Z,1.13
2022-09-23T01:50:53.224Z,1.35
2022-09-23T01:53:27.866Z,1.33
2022-09-23T01:56:00.166Z,1.90
2022-09-23T01:58:32.664Z,1.45
2022-09-23T02:01:02.814Z,1.60
2022-09-23T02:03:36.295Z,1.80
2022-09-23T02:06:08.093Z,1.90
2022-09-23T02:08:38.291Z,1.50
2022-09-23T02:11:09.742Z,1.70
2022-09-23T02:13:42.315Z,1.67
2022-09-23T02:16:17.147Z,1.95
2022-09-23T02:18:52.767Z,2.00
2022-09-23T02:21:24.281Z,1.50
2022-09-23T02:23:53.868Z,1.52
2022-09-23T02:26:29.404Z,1.90
2022-09-23T02:29:04.394Z,1.90
2022-09-23T02:31:39.459Z,1.40
2022-09-23T02:34:18.346Z,1.58
2022-09-23T02:36:53.823Z,1.63
2022-09-23T02:39:25.192Z,1.73
2022-09-23T02:42:01.675Z,1.88
2022-09-23T02:44:29.439Z,1.80
2022-09-23T02:46:57.867Z,1.67
2022-09-23T02:49:29.246Z,1.48
2022-09-23T02:51:57.810Z,1.38
2022-09-23T02:54:28.696Z,1.67
2022-09-23T02:56:57.239Z,1.97
2022-09-23T02:59:25.500Z,1.73
2022-09-23T03:02:06.439Z,1.85
2022-09-23T03:04:43.440Z,1.60
2022-09-23T03:07:16.771Z,1.63
2022-09-23T03:09:54.359Z,1.73
2022-09-23T03:12:34.240Z,1.90
2022-09-23T03:15:10.844Z,1.80
2022-09-23T03:17:44.812Z,1.90
2022-09-23T03:20:21.326Z,1.70
2022-09-23T03:22:53.868Z,1.73
2022-09-23T03:25:25.070Z,1.63
2022-09-23T03:27:57.875Z,1.83
2022-09-23T03:30:26.355Z,1.58
2022-09-23T03:32:55.541Z,1.70
2022-09-23T03:35:26.580Z,1.80
2022-09-23T03:37:58.196Z,2.00
2022-09-23T03:40:30.521Z,1.90
2022-09-23T03:43:01.012Z,1.85
2022-09-23T03:45:32.507Z,2.03
2022-09-23T03:48:00.400Z,1.57
2022-09-23T03:50:29.952Z,1.60
2022-09-23T03:52:57.444Z,1.90
2022-09-23T03:55:24.893Z,1.90
2022-09-23T03:57:52.513Z,1.63
2022-09-23T04:00:19.996Z,1.60
2022-09-23T04:02:47.412Z,1.80
2022-09-23T04:05:15.131Z,1.88
2022-09-23T04:07:43.912Z,1.73
2022-09-23T04:10:11.772Z,1.60
2022-09-23T04:12:39.364Z,1.60
2022-09-23T04:15:07.989Z,1.98
2022-09-23T04:17:35.432Z,1.85
2022-09-23T04:20:03.399Z,1.70
2022-09-23T04:22:30.959Z,1.75
2022-09-23T04:24:59.704Z,1.87
2022-09-23T04:27:28.091Z,1.48
2022-09-23T04:29:55.483Z,1.77
2022-09-23T04:32:24.367Z,1.48
2022-09-23T04:34:51.773Z,1.65
2022-09-23T04:37:19.295Z,1.80
2022-09-23T04:39:46.724Z,1.70
2022-09-23T04:42:15.479Z,1.70
2022-09-23T04:44:42.925Z,2.00
2022-09-23T04:47:10.298Z,1.80
2022-09-23T04:49:38.250Z,1.93
2022-09-23T04:52:06.279Z,1.80
2022-09-23T04:54:33.661Z,1.77
2022-09-23T04:57:01.043Z,2.10
2022-09-23T04:59:30.074Z,1.98
2022-09-23T05:01:57.480Z,2.13
2022-09-23T05:04:24.906Z,1.75
2022-09-23T05:06:52.279Z,1.80
2022-09-23T05:09:19.651Z,2.05
2022-09-23T05:11:47.237Z,2.22
2022-09-23T05:14:15.072Z,2.30
2022-09-23T05:16:43.853Z,2.30
2022-09-23T05:19:13.328Z,2.15
2022-09-23T05:21:40.745Z,2.00
2022-09-23T05:24:08.651Z,2.10
2022-09-23T05:26:36.067Z,2.10
2022-09-23T05:29:03.599Z,2.53
2022-09-23T05:31:31.521Z,2.30
2022-09-23T05:34:02.844Z,1.80
2022-09-23T05:36:36.930Z,1.98
2022-09-23T05:39:06.411Z,2.00
2022-09-23T05:41:34.367Z,2.00
2022-09-23T05:44:02.387Z,2.08
2022-09-23T05:46:31.669Z,2.10
2022-09-23T05:49:03.338Z,1.75
2022-09-23T05:51:32.217Z,2.10
2022-09-23T05:54:03.900Z,2.28
2022-09-23T05:56:32.608Z,2.40
2022-09-23T05:59:01.693Z,2.05
2022-09-23T06:01:33.289Z,1.70
2022-09-23T06:04:03.678Z,2.10
2022-09-23T06:06:33.201Z,1.70
2022-09-23T06:09:01.443Z,2.00
2022-09-23T06:11:31.530Z,2.17
2022-09-23T06:14:00.929Z,2.30
2022-09-23T06:16:29.439Z,1.80
2022-09-23T06:18:58.868Z,1.90
2022-09-23T06:21:30.782Z,2.03
2022-09-23T06:24:00.059Z,2.28
2022-09-23T06:26:28.985Z,3.65
2022-09-23T06:28:57.125Z,2.63
2022-09-23T06:31:24.564Z,2.20
2022-09-23T06:34:00.307Z,2.42
2022-09-23T06:36:42.680Z,2.00
2022-09-23T06:39:11.708Z,2.08
2022-09-23T06:41:39.187Z,2.10
2022-09-23T06:44:06.758Z,1.90
2022-09-23T06:46:34.314Z,2.53
2022-09-23T06:49:03.094Z,2.25
2022-09-23T06:51:31.867Z,1.60
2022-09-23T06:53:59.297Z,2.07
2022-09-23T06:56:26.771Z,2.20
2022-09-23T06:58:54.580Z,2.10
2022-09-23T07:01:23.083Z,1.73
2022-09-23T07:03:50.478Z,1.75
2022-09-23T07:06:18.651Z,1.60
2022-09-23T07:08:48.111Z,1.63
2022-09-23T07:11:19.224Z,2.10
2022-09-23T07:13:46.603Z,1.60
2022-09-23T07:16:14.047Z,1.67
2022-09-23T07:18:42.580Z,1.50
2022-09-23T07:21:13.033Z,1.40
2022-09-23T07:23:40.400Z,1.40
2022-09-23T07:26:09.499Z,1.90
2022-09-23T07:28:38.210Z,2.15
2022-09-23T07:31:07.840Z,1.20
2022-09-23T07:33:36.439Z,1.30
2022-09-23T07:36:08.225Z,1.25
2022-09-23T07:38:36.337Z,1.20
2022-09-23T07:41:06.199Z,1.50
2022-09-23T07:43:35.241Z,1.10
2022-09-23T07:46:05.360Z,1.02
2022-09-23T07:48:34.556Z,1.40
2022-09-23T07:51:06.592Z,1.20
2022-09-23T07:53:34.007Z,0.90
2022-09-23T07:56:01.456Z,1.30
2022-09-23T07:58:28.837Z,1.45
2022-09-23T08:01:02.844Z,1.02
2022-09-23T08:03:30.264Z,1.00
2022-09-23T08:06:05.126Z,0.95
2022-09-23T08:08:32.747Z,0.80
2022-09-23T08:11:04.947Z,0.80
2022-09-23T08:13:34.157Z,1.05
2022-09-23T08:16:03.455Z,0.90
2022-09-23T08:18:31.171Z,0.88
2022-09-23T08:20:58.571Z,0.83
2022-09-23T08:23:26.221Z,1.13
2022-09-23T08:25:59.868Z,1.02
2022-09-23T08:28:28.004Z,0.90
2022-09-23T08:30:56.201Z,0.80
2022-09-23T08:33:25.367Z,0.50
2022-09-23T08:35:53.660Z,0.75
2022-09-23T08:38:21.355Z,0.70
2022-09-23T08:40:50.494Z,0.70
2022-09-23T08:43:27.888Z,0.60
2022-09-23T08:45:58.295Z,0.50
2022-09-23T08:48:30.525Z,0.40
2022-09-23T08:51:04.930Z,0.40
2022-09-23T08:53:34.875Z,0.60
2022-09-23T08:56:07.992Z,0.50
2022-09-23T08:58:46.187Z,0.50
2022-09-23T09:01:22.710Z,0.45
2022-09-23T09:03:54.908Z,0.60
2022-09-23T09:06:28.796Z,0.50
2022-09-23T09:09:00.793Z,0.60
2022-09-23T09:11:35.113Z,0.50
2022-09-23T09:14:16.480Z,0.60
2022-09-23T09:16:59.880Z,1.00
2022-09-23T09:19:51.799Z,0.60
2022-09-23T09:22:24.823Z,0.73
2022-09-23T09:24:55.876Z,0.67
2022-09-23T09:27:24.973Z,0.60
2022-09-23T09:29:55.360Z,0.80
2022-09-23T09:32:34.194Z,0.60
2022-09-23T09:35:10.164Z,0.75
2022-09-23T09:37:44.465Z,0.67
2022-09-23T09:40:13.494Z,0.70
2022-09-23T09:42:42.767Z,0.70
2022-09-23T09:45:19.659Z,0.55
2022-09-23T09:47:52.361Z,0.50
2022-09-23T09:50:45.425Z,0.67
2022-09-23T09:53:22.209Z,0.65
2022-09-23T09:56:04.367Z,0.80
2022-09-23T09:58:41.507Z,0.60
2022-09-23T10:01:09.339Z,0.50
2022-09-23T10:03:40.644Z,0.60
2022-09-23T10:06:19.122Z,0.60
2022-09-23T10:09:05.711Z,0.80
2022-09-23T10:11:33.920Z,0.60
2022-09-23T10:14:05.892Z,0.60
2022-09-23T10:16:35.276Z,0.70
2022-09-23T10:19:04.362Z,0.60
2022-09-23T10:21:37.855Z,0.55
2022-09-23T10:24:07.794Z,0.57
2022-09-23T10:26:42.020Z,0.52
2022-09-23T10:29:23.394Z,0.77
2022-09-23T10:31:53.699Z,0.60
2022-09-23T10:34:25.729Z,0.75
2022-09-23T10:37:02.953Z,0.60
2022-09-23T10:39:47.962Z,0.63
2022-09-23T10:42:43.179Z,0.60
2022-09-23T10:45:41.202Z,0.50
2022-09-23T10:48:21.623Z,0.60
2022-09-23T10:50:51.112Z,0.60
2022-09-23T10:53:32.165Z,0.65
2022-09-23T10:56:17.282Z,0.70
2022-09-23T10:59:00.945Z,0.60
2022-09-23T11:01:39.998Z,0.60
2022-09-23T11:04:35.526Z,0.60
2022-09-23T11:07:17.109Z,0.70
2022-09-23T11:10:00.808Z,0.70
2022-09-23T11:12:38.799Z,0.50
2022-09-23T11:15:32.561Z,0.70
2022-09-23T11:18:26.395Z,0.50
2022-09-23T11:21:07.261Z,0.70
2022-09-23T11:23:56.602Z,0.50
2022-09-23T11:26:35.797Z,0.80
2022-09-23T11:29:23.879Z,0.60
2022-09-23T11:32:00.124Z,0.60
2022-09-23T11:34:55.162Z,0.60
2022-09-23T11:37:27.488Z,0.40
2022-09-23T11:40:04.232Z,0.60
2022-09-23T11:42:37.383Z,0.57
2022-09-23T11:45:10.653Z,0.60
2022-09-23T11:47:43.433Z,0.52
2022-09-23T11:50:19.821Z,0.60
2022-09-23T11:52:52.507Z,0.60
2022-09-23T11:55:24.287Z,0.60
2022-09-23T11:57:56.960Z,0.60
2022-09-23T12:00:26.456Z,0.70
2022-09-23T12:03:09.115Z,0.50
2022-09-23T12:05:40.701Z,0.60
2022-09-23T12:08:17.764Z,0.70
2022-09-23T12:10:54.314Z,0.60
2022-09-23T12:13:34.831Z,0.60
2022-09-23T12:16:32.965Z,0.70
2022-09-23T12:19:12.719Z,0.65
2022-09-23T12:22:01.607Z,0.77
2022-09-23T12:24:48.068Z,0.65
2022-09-23T12:27:31.796Z,0.80
2022-09-23T12:30:04.617Z,0.80
2022-09-23T12:32:33.011Z,0.70
2022-09-23T12:35:02.621Z,0.63
2022-09-23T12:37:34.216Z,0.70
2022-09-23T12:40:09.160Z,0.75
2022-09-23T12:42:45.757Z,0.63
2022-09-23T12:45:39.624Z,0.50
2022-09-23T12:48:43.936Z,0.60
2022-09-23T12:51:20.737Z,0.80
2022-09-23T12:53:57.364Z,0.80
2022-09-23T12:56:27.444Z,0.60
2022-09-23T12:58:59.112Z,0.50
2022-09-23T13:01:28.555Z,0.50
2022-09-23T13:04:16.098Z,0.80
2022-09-23T13:06:53.345Z,0.60
2022-09-23T13:09:25.460Z,0.70
2022-09-23T13:11:56.866Z,0.70
2022-09-23T13:14:27.737Z,0.60
2022-09-23T13:16:58.626Z,0.73
2022-09-23T13:19:46.977Z,0.90
2022-09-23T13:22:14.612Z,1.00
2022-09-23T13:24:44.240Z,1.08
2022-09-23T13:27:20.717Z,1.40
2022-09-23T13:29:54.342Z,0.93
2022-09-23T13:32:29.173Z,0.70
2022-09-23T13:34:59.140Z,0.80
2022-09-23T13:37:32.360Z,0.98
2022-09-23T13:40:20.972Z,1.02
2022-09-23T13:42:52.234Z,0.90
2022-09-23T13:45:22.179Z,1.02
2022-09-23T13:47:53.242Z,0.80
2022-09-23T13:50:23.208Z,0.90
2022-09-23T13:52:54.479Z,0.75
2022-09-23T13:55:27.596Z,0.80
2022-09-23T13:58:00.669Z,0.80
2022-09-23T14:00:38.404Z,0.80
2022-09-23T14:03:35.195Z,0.88
2022-09-23T14:06:08.407Z,0.80
2022-09-23T14:08:35.845Z,0.85
2022-09-23T14:11:06.107Z,0.80
2022-09-23T14:13:38.486Z,0.80
2022-09-23T14:16:06.429Z,0.80
2022-09-23T14:18:39.060Z,0.90
2022-09-23T14:21:07.695Z,0.73
2022-09-23T14:23:35.085Z,0.75
2022-09-23T14:26:03.416Z,0.90
2022-09-23T14:28:30.962Z,0.77
2022-09-23T14:30:59.016Z,0.85
2022-09-23T14:33:31.700Z,1.00
2022-09-23T14:36:16.796Z,0.80
2022-09-23T14:38:52.396Z,1.00
2022-09-23T14:41:23.821Z,0.88
2022-09-23T14:43:58.011Z,0.93
2022-09-23T14:46:27.101Z,0.90
2022-09-23T14:49:02.125Z,1.20
2022-09-23T14:51:34.042Z,1.30
2022-09-23T14:54:24.190Z,0.90
2022-09-23T14:56:51.648Z,0.90
2022-09-23T14:59:27.442Z,1.10
2022-09-23T15:01:55.340Z,0.90
2022-09-23T15:04:32.205Z,1.07
2022-09-23T15:07:05.312Z,0.98
2022-09-23T15:09:34.328Z,1.20
2022-09-23T15:12:03.886Z,1.08
2022-09-23T15:14:39.068Z,1.20
2022-09-23T15:17:16.491Z,1.13
2022-09-23T15:19:44.047Z,0.90
2022-09-23T15:22:13.183Z,1.10
2022-09-23T15:24:45.052Z,0.95
2022-09-23T15:27:25.237Z,0.95
2022-09-23T15:29:54.175Z,1.30
2022-09-23T15:32:21.666Z,1.08
2022-09-23T15:34:52.088Z,1.23
2022-09-23T15:37:20.820Z,1.20
2022-09-23T15:39:48.958Z,1.13
2022-09-23T15:42:18.145Z,1.10
2022-09-23T15:44:45.576Z,1.33
2022-09-23T15:47:18.684Z,1.30
2022-09-23T15:49:47.946Z,1.17
2022-09-23T15:52:16.330Z,1.00
2022-09-23T15:54:45.903Z,1.03
2022-09-23T15:57:13.280Z,1.00
2022-09-23T15:59:40.871Z,1.40
2022-09-23T16:02:20.088Z,0.80
2022-09-23T16:04:50.161Z,1.10
2022-09-23T16:07:19.562Z,0.97
2022-09-23T16:09:48.349Z,1.10
2022-09-23T16:12:15.864Z,0.90
2022-09-23T16:14:43.349Z,1.20
2022-09-23T16:17:14.015Z,1.10
2022-09-23T16:19:41.418Z,0.97
2022-09-23T16:22:08.852Z,0.80
2022-09-23T16:24:36.251Z,1.00
2022-09-23T16:27:07.669Z,1.20
2022-09-23T16:29:35.063Z,0.98
2022-09-23T16:32:03.071Z,0.90
2022-09-23T16:34:30.541Z,1.00
2022-09-23T16:36:57.929Z,1.00
2022-09-23T16:39:25.323Z,1.02
2022-09-23T16:41:52.719Z,1.13
2022-09-23T16:44:21.472Z,1.07
2022-09-23T16:46:48.998Z,0.95
2022-09-23T16:49:16.395Z,1.00
2022-09-23T16:51:43.815Z,1.00
2022-09-23T16:54:13.435Z,1.10
2022-09-23T16:56:44.856Z,1.00
2022-09-23T16:59:12.949Z,1.10
2022-09-23T17:01:59.452Z,0.85
2022-09-23T17:04:27.587Z,1.05
2022-09-23T17:06:55.893Z,1.27
2022-09-23T17:09:25.526Z,1.17
2022-09-23T17:11:58.554Z,1.00
2022-09-23T17:14:26.084Z,1.30
2022-09-23T17:16:54.840Z,1.00
2022-09-23T17:19:22.246Z,1.00
2022-09-23T17:21:49.640Z,0.93
2022-09-23T17:24:17.039Z,1.15
2022-09-23T17:26:52.021Z,1.25
2022-09-23T17:29:20.396Z,1.17
2022-09-23T17:31:47.882Z,1.40
2022-09-23T17:34:19.033Z,1.63
2022-09-23T17:36:46.447Z,1.70
2022-09-23T17:39:13.874Z,2.15
2022-09-23T17:41:41.275Z,2.03
2022-09-23T17:44:11.260Z,1.85
2022-09-23T17:46:38.686Z,2.47
2022-09-23T17:49:06.638Z,1.85
2022-09-23T17:51:35.456Z,1.20
2022-09-23T17:54:02.859Z,2.92
2022-09-23T17:56:30.739Z,7.80
2022-09-23T17:59:01.564Z,4.90
2022-09-23T18:01:29.220Z,5.35
2022-09-23T18:03:57.911Z,4.80
2022-09-23T18:06:27.686Z,3.15
2022-09-23T18:08:57.271Z,8.15
2022-09-23T18:11:26.876Z,4.70
2022-09-23T18:13:56.700Z,3.78
2022-09-23T18:16:26.363Z,4.80
2022-09-23T18:18:54.282Z,7.30
2022-09-23T18:21:22.440Z,2.80
2022-09-23T18:23:50.401Z,3.00
2022-09-23T18:26:21.222Z,4.03
2022-09-23T18:28:48.831Z,3.78
2022-09-23T18:31:16.695Z,4.13
2022-09-23T18:33:44.148Z,13.02
2022-09-23T18:36:11.556Z,17.00
2022-09-23T18:38:39.725Z,9.02
2022-09-23T18:41:07.171Z,2.30
2022-09-23T18:43:40.790Z,1.90
2022-09-23T18:46:13.298Z,1.67
2022-09-23T18:48:58.734Z,1.80
2022-09-23T18:51:28.923Z,1.50
2022-09-23T18:53:57.606Z,1.60
2022-09-23T18:56:26.923Z,1.40
2022-09-23T18:58:56.530Z,1.30
2022-09-23T19:01:24.837Z,1.20
2022-09-23T19:03:55.367Z,1.30
2022-09-23T19:06:23.595Z,1.30
2022-09-23T19:08:51.961Z,1.45
2022-09-23T19:11:20.254Z,1.13
2022-09-23T19:13:47.939Z,1.47
2022-09-23T19:16:17.803Z,1.25
2022-09-23T19:18:46.550Z,1.33
2022-09-23T19:21:16.987Z,1.20
2022-09-23T19:23:47.733Z,1.50
2022-09-23T19:26:17.308Z,1.57
2022-09-23T19:28:48.940Z,1.33
2022-09-23T19:31:19.975Z,1.30
2022-09-23T19:33:56.374Z,1.58
2022-09-23T19:36:25.949Z,3.35
2022-09-23T19:38:54.995Z,1.90
2022-09-23T19:41:22.415Z,1.50
2022-09-23T19:43:49.845Z,2.28
2022-09-23T19:46:19.359Z,1.70
2022-09-23T19:48:46.984Z,1.55
2022-09-23T19:51:14.674Z,5.57
2022-09-23T19:53:42.572Z,3.15
2022-09-23T19:56:09.984Z,1.77
2022-09-23T19:58:37.377Z,1.60
2022-09-23T20:01:07.855Z,1.42
2022-09-23T20:03:36.680Z,1.50
2022-09-23T20:06:04.207Z,1.50
2022-09-23T20:08:31.644Z,1.50
2022-09-23T20:10:59.046Z,1.70
2022-09-23T20:13:27.055Z,1.88
2022-09-23T20:15:54.508Z,1.87
2022-09-23T20:18:21.930Z,1.40
2022-09-23T20:20:55.763Z,1.60
2022-09-23T20:23:23.146Z,1.45
2022-09-23T20:26:13.632Z,1.90
2022-09-23T20:28:41.070Z,1.70
2022-09-23T20:31:08.507Z,1.70
2022-09-23T20:33:37.697Z,2.00
2022-09-23T20:36:07.451Z,1.67
2022-09-23T20:38:34.902Z,2.00
2022-09-23T20:41:02.725Z,1.80
2022-09-23T20:43:32.871Z,1.95
2022-09-23T20:46:01.618Z,1.63
2022-09-23T20:48:30.485Z,2.15
2022-09-23T20:51:01.109Z,1.88
2022-09-23T20:53:30.976Z,2.17
2022-09-23T20:55:58.671Z,1.70
2022-09-23T20:58:29.019Z,1.60
2022-09-23T21:01:02.641Z,1.83
2022-09-23T21:03:31.594Z,2.00
2022-09-23T21:06:03.291Z,1.80
2022-09-23T21:08:33.248Z,1.95
2022-09-23T21:11:04.983Z,2.00
2022-09-23T21:13:34.424Z,1.83
2022-09-23T21:16:03.943Z,2.20
2022-09-23T21:18:31.465Z,1.67
2022-09-23T21:21:00.194Z,1.70
2022-09-23T21:23:28.559Z,2.35
2022-09-23T21:26:02.017Z,2.30
2022-09-23T21:28:33.368Z,2.40
2022-09-23T21:31:01.614Z,2.07
2022-09-23T21:33:30.302Z,2.60
2022-09-23T21:35:59.646Z,3.55
2022-09-23T21:38:27.050Z,2.33
2022-09-23T21:40:58.965Z,2.28
2022-09-23T21:43:29.432Z,2.27
2022-09-23T21:45:59.539Z,1.73
2022-09-23T21:48:28.837Z,2.50
2022-09-23T21:50:58.249Z,2.20
2022-09-23T21:53:26.425Z,2.30
2022-09-23T21:55:53.991Z,2.70
2022-09-23T21:58:22.473Z,2.47
2022-09-23T22:00:51.310Z,2.55
2022-09-23T22:03:18.810Z,2.17
2022-09-23T22:05:46.226Z,2.42
2022-09-23T22:08:13.631Z,2.17
2022-09-23T22:10:41.030Z,2.17
2022-09-23T22:13:12.769Z,2.30
2022-09-23T22:15:40.509Z,2.28
2022-09-23T22:18:09.239Z,2.60
2022-09-23T22:20:36.993Z,2.43
2022-09-23T22:23:04.381Z,2.45
2022-09-23T22:25:33.108Z,2.15
2022-09-23T22:28:18.098Z,2.28
2022-09-23T22:31:03.339Z,2.22
2022-09-23T22:33:32.096Z,2.60
2022-09-23T22:36:02.513Z,2.40
2022-09-23T22:38:31.074Z,2.03
2022-09-23T22:40:59.709Z,2.35
2022-09-23T22:43:27.194Z,2.42
2022-09-23T22:45:54.582Z,2.60
2022-09-23T22:48:22.015Z,2.58
2022-09-23T22:50:50.795Z,2.35
2022-09-23T22:53:18.680Z,2.83
2022-09-23T22:55:46.074Z,2.58
2022-09-23T22:58:31.028Z,2.57
2022-09-23T23:00:59.522Z,2.85
2022-09-23T23:03:27.362Z,2.50
2022-09-23T23:05:59.957Z,2.42
2022-09-23T23:08:27.641Z,2.67
2022-09-23T23:10:55.775Z,2.50
2022-09-23T23:13:24.394Z,2.42
2022-09-23T23:15:51.861Z,2.30
2022-09-23T23:18:19.435Z,2.55
2022-09-23T23:20:46.838Z,2.20
2022-09-23T23:23:15.667Z,2.00
2022-09-23T23:25:43.076Z,2.50
2022-09-23T23:28:10.581Z,2.50
2022-09-23T23:30:37.962Z,2.20
2022-09-23T23:33:05.369Z,2.60
2022-09-23T23:35:32.776Z,2.37
2022-09-23T23:38:00.510Z,2.20
2022-09-23T23:40:29.264Z,2.45
2022-09-23T23:42:56.692Z,2.38
2022-09-23T23:45:24.101Z,2.55
2022-09-23T23:47:51.485Z,2.90
2022-09-23T23:50:18.924Z,2.00
2022-09-23T23:52:46.368Z,2.50
2022-09-23T23:55:14.273Z,2.45
2022-09-23T23:57:43.113Z,2.47
